sensor_id;sensor_type;location;lat;lon;timestamp;temperature;humidity
18091;DHT22;9172;49.948;9.208;2022-11-18T00:01:40;9.70;99.90
18091;DHT22;9172;49.948;9.208;2022-11-18T00:04:09;9.70;99.90
18091;DHT22;9172;49.948;9.208;2022-11-18T00:06:38;9.70;99.90
18091;DHT22;9172;49.948;9.208;2022-11-18T00:09:08;9.60;99.90
18091;DHT22;9172;49.948;9.208;2022-11-18T00:11:37;9.60;99.90
18091;DHT22;9172;49.948;9.208;2022-11-18T00:14:25;9.60;99.90
18091;DHT22;9172;49.948;9.208;2022-11-18T00:16:55;9.60;99.90
18091;DHT22;9172;49.948;9.208;2022-11-18T00:19:27;9.60;99.90
18091;DHT22;9172;49.948;9.208;2022-11-18T00:21:56;9.60;99.90
18091;DHT22;9172;49.948;9.208;2022-11-18T00:24:25;9.50;99.90
18091;DHT22;9172;49.948;9.208;2022-11-18T00:26:54;9.60;99.90
18091;DHT22;9172;49.948;9.208;2022-11-18T00:29:25;9.50;99.90
18091;DHT22;9172;49.948;9.208;2022-11-18T00:31:54;9.40;99.90
18091;DHT22;9172;49.948;9.208;2022-11-18T00:34:25;9.40;99.90
18091;DHT22;9172;49.948;9.208;2022-11-18T00:36:53;9.30;99.90
18091;DHT22;9172;49.948;9.208;2022-11-18T00:39:23;9.30;99.90
18091;DHT22;9172;49.948;9.208;2022-11-18T00:41:52;9.30;99.90
18091;DHT22;9172;49.948;9.208;2022-11-18T00:44:49;9.40;99.90
18091;DHT22;9172;49.948;9.208;2022-11-18T00:47:18;9.50;99.90
18091;DHT22;9172;49.948;9.208;2022-11-18T00:49:48;9.50;99.90
18091;DHT22;9172;49.948;9.208;2022-11-18T00:52:17;9.30;99.90
18091;DHT22;9172;49.948;9.208;2022-11-18T00:54:47;9.20;99.90
18091;DHT22;9172;49.948;9.208;2022-11-18T00:57:16;9.30;99.90
18091;DHT22;9172;49.948;9.208;2022-11-18T00:59:46;9.30;99.90
18091;DHT22;9172;49.948;9.208;2022-11-18T01:02:16;9.30;99.90
18091;DHT22;9172;49.948;9.208;2022-11-18T01:04:44;9.40;99.90
18091;DHT22;9172;49.948;9.208;2022-11-18T01:07:14;9.40;99.90
18091;DHT22;9172;49.948;9.208;2022-11-18T01:09:43;8.70;99.90
18091;DHT22;9172;49.948;9.208;2022-11-18T01:12:12;9.50;99.90
18091;DHT22;9172;49.948;9.208;2022-11-18T01:14:59;9.50;99.90
18091;DHT22;9172;49.948;9.208;2022-11-18T01:17:30;9.50;99.90
18091;DHT22;9172;49.948;9.208;2022-11-18T01:20:00;9.50;99.90
18091;DHT22;9172;49.948;9.208;2022-11-18T01:22:28;9.50;99.90
18091;DHT22;9172;49.948;9.208;2022-11-18T01:24:58;9.60;99.90
18091;DHT22;9172;49.948;9.208;2022-11-18T01:27:27;9.60;99.90
18091;DHT22;9172;49.948;9.208;2022-11-18T01:29:55;9.60;99.90
18091;DHT22;9172;49.948;9.208;2022-11-18T01:32:24;9.60;99.90
18091;DHT22;9172;49.948;9.208;2022-11-18T01:34:53;11.30;99.90
18091;DHT22;9172;49.948;9.208;2022-11-18T01:37:22;9.40;99.90
18091;DHT22;9172;49.948;9.208;2022-11-18T01:39:51;9.30;99.90
18091;DHT22;9172;49.948;9.208;2022-11-18T01:42:20;9.20;99.90
18091;DHT22;9172;49.948;9.208;2022-11-18T01:45:23;9.20;99.90
18091;DHT22;9172;49.948;9.208;2022-11-18T01:47:54;9.10;99.90
18091;DHT22;9172;49.948;9.208;2022-11-18T01:50:24;9.00;99.90
18091;DHT22;9172;49.948;9.208;2022-11-18T01:52:56;9.10;99.90
18091;DHT22;9172;49.948;9.208;2022-11-18T01:55:28;9.20;99.90
18091;DHT22;9172;49.948;9.208;2022-11-18T01:58:00;9.20;99.90
18091;DHT22;9172;49.948;9.208;2022-11-18T02:00:31;9.30;99.90
18091;DHT22;9172;49.948;9.208;2022-11-18T02:03:01;9.30;99.90
18091;DHT22;9172;49.948;9.208;2022-11-18T02:05:30;9.40;99.90
18091;DHT22;9172;49.948;9.208;2022-11-18T02:08:01;9.40;99.90
18091;DHT22;9172;49.948;9.208;2022-11-18T02:10:30;9.40;99.90
18091;DHT22;9172;49.948;9.208;2022-11-18T02:13:00;9.40;99.90
18091;DHT22;9172;49.948;9.208;2022-11-18T02:15:37;9.50;99.90
18091;DHT22;9172;49.948;9.208;2022-11-18T02:18:10;9.50;99.90
18091;DHT22;9172;49.948;9.208;2022-11-18T02:20:41;9.50;99.90
18091;DHT22;9172;49.948;9.208;2022-11-18T02:26:35;9.50;99.90
18091;DHT22;9172;49.948;9.208;2022-11-18T02:29:07;9.50;99.90
18091;DHT22;9172;49.948;9.208;2022-11-18T02:31:43;9.40;99.90
18091;DHT22;9172;49.948;9.208;2022-11-18T02:34:17;9.40;99.90
18091;DHT22;9172;49.948;9.208;2022-11-18T02:36:50;9.50;99.90
18091;DHT22;9172;49.948;9.208;2022-11-18T02:39:23;9.50;99.90
18091;DHT22;9172;49.948;9.208;2022-11-18T02:41:54;9.50;99.90
18091;DHT22;9172;49.948;9.208;2022-11-18T02:44:25;9.60;99.90
18091;DHT22;9172;49.948;9.208;2022-11-18T02:46:57;9.60;99.90
18091;DHT22;9172;49.948;9.208;2022-11-18T02:49:30;9.60;99.90
18091;DHT22;9172;49.948;9.208;2022-11-18T02:52:00;9.60;99.90
18091;DHT22;9172;49.948;9.208;2022-11-18T02:54:30;9.60;99.90
18091;DHT22;9172;49.948;9.208;2022-11-18T02:57:00;9.60;99.90
18091;DHT22;9172;49.948;9.208;2022-11-18T02:59:29;9.60;99.90
18091;DHT22;9172;49.948;9.208;2022-11-18T03:01:59;9.50;99.90
18091;DHT22;9172;49.948;9.208;2022-11-18T03:04:29;9.50;99.90
18091;DHT22;9172;49.948;9.208;2022-11-18T03:09:47;9.60;99.90
18091;DHT22;9172;49.948;9.208;2022-11-18T03:12:22;9.60;99.90
18091;DHT22;9172;49.948;9.208;2022-11-18T03:14:56;9.60;99.90
18091;DHT22;9172;49.948;9.208;2022-11-18T03:17:31;9.60;99.90
18091;DHT22;9172;49.948;9.208;2022-11-18T03:20:06;9.60;99.90
18091;DHT22;9172;49.948;9.208;2022-11-18T03:22:39;9.60;99.90
18091;DHT22;9172;49.948;9.208;2022-11-18T03:25:12;9.60;99.90
18091;DHT22;9172;49.948;9.208;2022-11-18T03:27:44;9.50;99.90
18091;DHT22;9172;49.948;9.208;2022-11-18T03:30:17;9.50;99.90
18091;DHT22;9172;49.948;9.208;2022-11-18T03:32:49;9.50;99.90
18091;DHT22;9172;49.948;9.208;2022-11-18T03:35:20;9.50;99.90
18091;DHT22;9172;49.948;9.208;2022-11-18T03:38:00;9.50;99.90
18091;DHT22;9172;49.948;9.208;2022-11-18T03:40:24;9.50;99.90
18091;DHT22;9172;49.948;9.208;2022-11-18T03:42:56;9.50;99.90
18091;DHT22;9172;49.948;9.208;2022-11-18T03:45:29;9.50;99.90
18091;DHT22;9172;49.948;9.208;2022-11-18T03:48:00;9.60;99.90
18091;DHT22;9172;49.948;9.208;2022-11-18T03:50:32;9.60;99.90
18091;DHT22;9172;49.948;9.208;2022-11-18T03:53:03;9.60;99.90
18091;DHT22;9172;49.948;9.208;2022-11-18T03:55:35;9.60;99.90
18091;DHT22;9172;49.948;9.208;2022-11-18T03:58:08;9.60;99.90
18091;DHT22;9172;49.948;9.208;2022-11-18T04:00:39;9.60;99.90
18091;DHT22;9172;49.948;9.208;2022-11-18T04:03:09;9.60;99.90
18091;DHT22;9172;49.948;9.208;2022-11-18T04:05:40;9.60;99.90
18091;DHT22;9172;49.948;9.208;2022-11-18T04:08:12;9.70;99.90
18091;DHT22;9172;49.948;9.208;2022-11-18T04:10:45;9.70;99.90
18091;DHT22;9172;49.948;9.208;2022-11-18T04:13:17;9.70;99.90
18091;DHT22;9172;49.948;9.208;2022-11-18T04:15:47;9.60;99.90
18091;DHT22;9172;49.948;9.208;2022-11-18T04:18:16;9.60;99.90
18091;DHT22;9172;49.948;9.208;2022-11-18T04:20:45;9.50;99.90
18091;DHT22;9172;49.948;9.208;2022-11-18T04:23:14;9.60;99.90
18091;DHT22;9172;49.948;9.208;2022-11-18T04:25:42;9.60;99.90
18091;DHT22;9172;49.948;9.208;2022-11-18T04:28:11;9.60;99.90
18091;DHT22;9172;49.948;9.208;2022-11-18T04:30:40;9.60;99.90
18091;DHT22;9172;49.948;9.208;2022-11-18T04:33:09;9.60;99.90
18091;DHT22;9172;49.948;9.208;2022-11-18T04:35:40;9.60;99.90
18091;DHT22;9172;49.948;9.208;2022-11-18T04:38:08;9.60;99.90
18091;DHT22;9172;49.948;9.208;2022-11-18T04:40:37;9.70;99.90
18091;DHT22;9172;49.948;9.208;2022-11-18T04:43:05;9.60;99.90
18091;DHT22;9172;49.948;9.208;2022-11-18T04:45:34;9.70;99.90
18091;DHT22;9172;49.948;9.208;2022-11-18T04:48:03;9.70;99.90
18091;DHT22;9172;49.948;9.208;2022-11-18T04:50:33;9.70;99.90
18091;DHT22;9172;49.948;9.208;2022-11-18T04:53:02;9.70;99.90
18091;DHT22;9172;49.948;9.208;2022-11-18T04:55:34;9.70;99.90
18091;DHT22;9172;49.948;9.208;2022-11-18T04:58:02;9.70;99.90
18091;DHT22;9172;49.948;9.208;2022-11-18T05:00:32;9.70;99.90
18091;DHT22;9172;49.948;9.208;2022-11-18T05:03:00;9.70;99.90
18091;DHT22;9172;49.948;9.208;2022-11-18T05:05:30;9.70;99.90
18091;DHT22;9172;49.948;9.208;2022-11-18T05:07:58;9.70;99.90
18091;DHT22;9172;49.948;9.208;2022-11-18T05:10:27;9.70;99.90
18091;DHT22;9172;49.948;9.208;2022-11-18T05:12:56;9.70;99.90
18091;DHT22;9172;49.948;9.208;2022-11-18T05:15:24;9.70;99.90
18091;DHT22;9172;49.948;9.208;2022-11-18T05:17:55;9.70;99.90
18091;DHT22;9172;49.948;9.208;2022-11-18T05:20:23;9.70;99.90
18091;DHT22;9172;49.948;9.208;2022-11-18T05:22:53;9.60;99.90
18091;DHT22;9172;49.948;9.208;2022-11-18T05:25:22;9.60;99.90
18091;DHT22;9172;49.948;9.208;2022-11-18T05:27:51;9.60;99.90
18091;DHT22;9172;49.948;9.208;2022-11-18T05:30:48;9.60;99.90
18091;DHT22;9172;49.948;9.208;2022-11-18T05:33:16;9.60;99.90
18091;DHT22;9172;49.948;9.208;2022-11-18T05:35:45;9.40;99.90
18091;DHT22;9172;49.948;9.208;2022-11-18T05:38:13;9.50;99.90
18091;DHT22;9172;49.948;9.208;2022-11-18T05:40:42;9.50;99.90
18091;DHT22;9172;49.948;9.208;2022-11-18T05:43:12;9.50;99.90
18091;DHT22;9172;49.948;9.208;2022-11-18T05:45:42;9.50;99.90
18091;DHT22;9172;49.948;9.208;2022-11-18T05:48:11;9.60;99.90
18091;DHT22;9172;49.948;9.208;2022-11-18T05:50:44;9.60;99.90
18091;DHT22;9172;49.948;9.208;2022-11-18T05:53:12;9.60;99.90
18091;DHT22;9172;49.948;9.208;2022-11-18T05:55:43;9.60;99.90
18091;DHT22;9172;49.948;9.208;2022-11-18T05:58:12;9.60;99.90
18091;DHT22;9172;49.948;9.208;2022-11-18T06:00:42;9.70;99.90
18091;DHT22;9172;49.948;9.208;2022-11-18T06:03:15;9.60;99.90
18091;DHT22;9172;49.948;9.208;2022-11-18T06:05:48;9.50;99.90
18091;DHT22;9172;49.948;9.208;2022-11-18T06:08:19;9.40;99.90
18091;DHT22;9172;49.948;9.208;2022-11-18T06:10:48;9.40;99.90
18091;DHT22;9172;49.948;9.208;2022-11-18T06:13:21;9.40;99.90
18091;DHT22;9172;49.948;9.208;2022-11-18T06:15:52;9.50;99.90
18091;DHT22;9172;49.948;9.208;2022-11-18T06:18:23;9.50;99.90
18091;DHT22;9172;49.948;9.208;2022-11-18T06:20:55;9.60;99.90
18091;DHT22;9172;49.948;9.208;2022-11-18T06:23:26;9.50;99.90
18091;DHT22;9172;49.948;9.208;2022-11-18T06:25:56;9.50;99.90
18091;DHT22;9172;49.948;9.208;2022-11-18T06:28:27;9.50;99.90
18091;DHT22;9172;49.948;9.208;2022-11-18T06:30:57;9.60;99.90
18091;DHT22;9172;49.948;9.208;2022-11-18T06:33:28;9.60;99.90
18091;DHT22;9172;49.948;9.208;2022-11-18T06:35:57;9.50;99.90
18091;DHT22;9172;49.948;9.208;2022-11-18T06:38:26;9.50;99.90
18091;DHT22;9172;49.948;9.208;2022-11-18T06:40:59;9.50;99.90
18091;DHT22;9172;49.948;9.208;2022-11-18T06:43:28;9.40;99.90
18091;DHT22;9172;49.948;9.208;2022-11-18T06:46:10;9.30;99.90
18091;DHT22;9172;49.948;9.208;2022-11-18T06:48:57;9.20;99.90
18091;DHT22;9172;49.948;9.208;2022-11-18T06:51:26;9.20;99.90
18091;DHT22;9172;49.948;9.208;2022-11-18T06:53:55;9.10;99.90
18091;DHT22;9172;49.948;9.208;2022-11-18T06:56:24;9.10;99.90
18091;DHT22;9172;49.948;9.208;2022-11-18T06:58:54;9.10;99.90
18091;DHT22;9172;49.948;9.208;2022-11-18T07:01:25;9.10;99.90
18091;DHT22;9172;49.948;9.208;2022-11-18T07:03:56;9.10;99.90
18091;DHT22;9172;49.948;9.208;2022-11-18T07:06:27;9.10;99.90
18091;DHT22;9172;49.948;9.208;2022-11-18T07:08:56;9.10;99.90
18091;DHT22;9172;49.948;9.208;2022-11-18T07:11:27;9.10;99.90
18091;DHT22;9172;49.948;9.208;2022-11-18T07:13:56;9.00;99.90
18091;DHT22;9172;49.948;9.208;2022-11-18T07:16:26;9.00;99.90
18091;DHT22;9172;49.948;9.208;2022-11-18T07:18:55;9.00;99.90
18091;DHT22;9172;49.948;9.208;2022-11-18T07:21:25;9.10;99.90
18091;DHT22;9172;49.948;9.208;2022-11-18T07:23:55;9.10;99.90
18091;DHT22;9172;49.948;9.208;2022-11-18T07:26:25;9.20;99.90
18091;DHT22;9172;49.948;9.208;2022-11-18T07:28:54;9.20;99.90
18091;DHT22;9172;49.948;9.208;2022-11-18T07:31:23;9.20;99.90
18091;DHT22;9172;49.948;9.208;2022-11-18T07:33:53;9.30;99.90
18091;DHT22;9172;49.948;9.208;2022-11-18T07:36:24;9.30;99.90
18091;DHT22;9172;49.948;9.208;2022-11-18T07:38:53;9.30;99.90
18091;DHT22;9172;49.948;9.208;2022-11-18T07:41:23;9.30;99.90
18091;DHT22;9172;49.948;9.208;2022-11-18T07:43:55;9.20;99.90
18091;DHT22;9172;49.948;9.208;2022-11-18T07:46:26;9.20;99.90
18091;DHT22;9172;49.948;9.208;2022-11-18T07:48:56;9.30;99.90
18091;DHT22;9172;49.948;9.208;2022-11-18T07:51:27;9.40;99.90
18091;DHT22;9172;49.948;9.208;2022-11-18T07:53:56;9.30;99.90
18091;DHT22;9172;49.948;9.208;2022-11-18T07:56:25;8.40;99.90
18091;DHT22;9172;49.948;9.208;2022-11-18T07:58:56;9.40;99.90
18091;DHT22;9172;49.948;9.208;2022-11-18T08:04:07;9.50;99.90
18091;DHT22;9172;49.948;9.208;2022-11-18T08:06:37;9.50;99.90
18091;DHT22;9172;49.948;9.208;2022-11-18T08:09:07;9.50;99.90
18091;DHT22;9172;49.948;9.208;2022-11-18T08:11:35;9.60;99.90
18091;DHT22;9172;49.948;9.208;2022-11-18T08:14:04;9.50;99.90
18091;DHT22;9172;49.948;9.208;2022-11-18T08:16:34;9.60;99.90
18091;DHT22;9172;49.948;9.208;2022-11-18T08:19:03;9.60;99.90
18091;DHT22;9172;49.948;9.208;2022-11-18T08:21:32;9.60;99.90
18091;DHT22;9172;49.948;9.208;2022-11-18T08:24:01;9.60;99.90
18091;DHT22;9172;49.948;9.208;2022-11-18T08:26:29;9.60;99.90
18091;DHT22;9172;49.948;9.208;2022-11-18T08:28:59;9.60;99.90
18091;DHT22;9172;49.948;9.208;2022-11-18T08:31:29;9.50;99.90
18091;DHT22;9172;49.948;9.208;2022-11-18T08:33:58;9.50;99.90
18091;DHT22;9172;49.948;9.208;2022-11-18T08:36:29;9.50;99.90
18091;DHT22;9172;49.948;9.208;2022-11-18T08:38:59;9.50;99.90
18091;DHT22;9172;49.948;9.208;2022-11-18T08:41:31;9.50;99.90
18091;DHT22;9172;49.948;9.208;2022-11-18T08:44:00;9.50;99.90
18091;DHT22;9172;49.948;9.208;2022-11-18T08:46:30;9.40;99.90
18091;DHT22;9172;49.948;9.208;2022-11-18T08:49:00;9.40;99.90
18091;DHT22;9172;49.948;9.208;2022-11-18T08:51:29;9.40;99.90
18091;DHT22;9172;49.948;9.208;2022-11-18T08:53:57;9.40;99.90
18091;DHT22;9172;49.948;9.208;2022-11-18T08:56:27;9.40;99.90
18091;DHT22;9172;49.948;9.208;2022-11-18T08:58:58;9.40;99.90
18091;DHT22;9172;49.948;9.208;2022-11-18T09:01:27;9.20;99.90
18091;DHT22;9172;49.948;9.208;2022-11-18T09:06:31;9.10;99.90
18091;DHT22;9172;49.948;9.208;2022-11-18T09:09:01;9.10;99.90
18091;DHT22;9172;49.948;9.208;2022-11-18T09:11:31;9.10;99.90
18091;DHT22;9172;49.948;9.208;2022-11-18T09:14:01;9.00;99.90
18091;DHT22;9172;49.948;9.208;2022-11-18T09:16:32;9.00;99.90
18091;DHT22;9172;49.948;9.208;2022-11-18T09:19:01;8.90;99.90
18091;DHT22;9172;49.948;9.208;2022-11-18T09:21:30;8.90;99.90
18091;DHT22;9172;49.948;9.208;2022-11-18T09:24:02;8.90;99.90
18091;DHT22;9172;49.948;9.208;2022-11-18T09:26:32;8.90;99.90
18091;DHT22;9172;49.948;9.208;2022-11-18T09:29:01;8.90;99.90
18091;DHT22;9172;49.948;9.208;2022-11-18T09:31:30;8.90;99.90
18091;DHT22;9172;49.948;9.208;2022-11-18T09:33:59;8.90;99.90
18091;DHT22;9172;49.948;9.208;2022-11-18T09:36:28;8.90;99.90
18091;DHT22;9172;49.948;9.208;2022-11-18T09:38:59;8.90;99.90
18091;DHT22;9172;49.948;9.208;2022-11-18T09:41:39;9.00;99.90
18091;DHT22;9172;49.948;9.208;2022-11-18T09:44:15;9.00;99.90
18091;DHT22;9172;49.948;9.208;2022-11-18T09:46:50;9.10;99.90
18091;DHT22;9172;49.948;9.208;2022-11-18T09:49:21;9.10;99.90
18091;DHT22;9172;49.948;9.208;2022-11-18T09:51:52;9.10;99.90
18091;DHT22;9172;49.948;9.208;2022-11-18T09:54:23;9.00;99.90
18091;DHT22;9172;49.948;9.208;2022-11-18T09:56:54;9.00;99.90
18091;DHT22;9172;49.948;9.208;2022-11-18T09:59:26;9.00;99.90
18091;DHT22;9172;49.948;9.208;2022-11-18T10:01:57;9.00;99.90
18091;DHT22;9172;49.948;9.208;2022-11-18T10:04:28;8.90;99.90
18091;DHT22;9172;49.948;9.208;2022-11-18T10:06:56;8.90;99.90
18091;DHT22;9172;49.948;9.208;2022-11-18T10:09:31;8.90;99.90
18091;DHT22;9172;49.948;9.208;2022-11-18T10:12:16;8.90;99.90
18091;DHT22;9172;49.948;9.208;2022-11-18T10:14:58;9.00;99.90
18091;DHT22;9172;49.948;9.208;2022-11-18T10:17:34;9.00;99.90
18091;DHT22;9172;49.948;9.208;2022-11-18T10:20:18;8.90;99.90
18091;DHT22;9172;49.948;9.208;2022-11-18T10:22:51;9.00;99.90
18091;DHT22;9172;49.948;9.208;2022-11-18T10:25:20;9.00;99.90
18091;DHT22;9172;49.948;9.208;2022-11-18T10:27:49;9.00;99.90
18091;DHT22;9172;49.948;9.208;2022-11-18T10:30:22;8.90;99.90
18091;DHT22;9172;49.948;9.208;2022-11-18T10:32:58;9.00;99.90
18091;DHT22;9172;49.948;9.208;2022-11-18T10:35:30;9.00;99.90
18091;DHT22;9172;49.948;9.208;2022-11-18T10:38:04;9.10;99.90
18091;DHT22;9172;49.948;9.208;2022-11-18T10:40:34;9.10;99.90
18091;DHT22;9172;49.948;9.208;2022-11-18T10:43:08;9.20;99.90
18091;DHT22;9172;49.948;9.208;2022-11-18T10:45:36;9.20;99.90
18091;DHT22;9172;49.948;9.208;2022-11-18T10:48:08;9.20;99.90
18091;DHT22;9172;49.948;9.208;2022-11-18T10:50:39;9.20;99.90
18091;DHT22;9172;49.948;9.208;2022-11-18T10:53:28;9.20;99.90
18091;DHT22;9172;49.948;9.208;2022-11-18T10:55:59;9.20;99.90
18091;DHT22;9172;49.948;9.208;2022-11-18T10:58:30;9.20;99.90
18091;DHT22;9172;49.948;9.208;2022-11-18T11:01:18;9.20;99.90
18091;DHT22;9172;49.948;9.208;2022-11-18T11:03:50;9.30;99.90
18091;DHT22;9172;49.948;9.208;2022-11-18T11:06:33;8.40;99.90
18091;DHT22;9172;49.948;9.208;2022-11-18T11:09:24;9.30;99.90
18091;DHT22;9172;49.948;9.208;2022-11-18T11:11:40;9.30;99.90
18091;DHT22;9172;49.948;9.208;2022-11-18T11:14:19;9.30;99.90
18091;DHT22;9172;49.948;9.208;2022-11-18T11:17:00;9.30;99.90
18091;DHT22;9172;49.948;9.208;2022-11-18T11:19:34;9.30;99.90
18091;DHT22;9172;49.948;9.208;2022-11-18T11:22:10;9.30;99.90
18091;DHT22;9172;49.948;9.208;2022-11-18T11:24:40;9.30;99.90
18091;DHT22;9172;49.948;9.208;2022-11-18T11:30:20;9.40;99.90
18091;DHT22;9172;49.948;9.208;2022-11-18T11:33:04;9.30;99.90
18091;DHT22;9172;49.948;9.208;2022-11-18T11:35:40;9.30;99.90
18091;DHT22;9172;49.948;9.208;2022-11-18T11:38:12;9.20;99.90
18091;DHT22;9172;49.948;9.208;2022-11-18T11:40:44;9.20;99.90
18091;DHT22;9172;49.948;9.208;2022-11-18T11:43:22;9.20;99.90
18091;DHT22;9172;49.948;9.208;2022-11-18T11:46:06;9.20;99.90
18091;DHT22;9172;49.948;9.208;2022-11-18T11:48:41;9.20;99.90
18091;DHT22;9172;49.948;9.208;2022-11-18T11:51:13;9.30;99.90
18091;DHT22;9172;49.948;9.208;2022-11-18T11:56:54;9.30;99.90
18091;DHT22;9172;49.948;9.208;2022-11-18T11:59:29;9.30;99.90
18091;DHT22;9172;49.948;9.208;2022-11-18T12:02:13;9.30;99.90
18091;DHT22;9172;49.948;9.208;2022-11-18T12:04:44;9.30;99.90
18091;DHT22;9172;49.948;9.208;2022-11-18T12:07:17;9.40;99.90
18091;DHT22;9172;49.948;9.208;2022-11-18T12:12:45;9.40;99.90
18091;DHT22;9172;49.948;9.208;2022-11-18T12:15:25;9.30;99.90
18091;DHT22;9172;49.948;9.208;2022-11-18T12:17:58;9.30;99.90
18091;DHT22;9172;49.948;9.208;2022-11-18T12:20:39;9.40;99.90
18091;DHT22;9172;49.948;9.208;2022-11-18T12:23:19;9.50;99.90
18091;DHT22;9172;49.948;9.208;2022-11-18T12:25:53;9.50;99.90
18091;DHT22;9172;49.948;9.208;2022-11-18T12:28:30;9.60;99.90
18091;DHT22;9172;49.948;9.208;2022-11-18T12:31:26;9.50;99.90
18091;DHT22;9172;49.948;9.208;2022-11-18T12:33:59;9.50;99.90
18091;DHT22;9172;49.948;9.208;2022-11-18T12:36:29;9.50;99.90
18091;DHT22;9172;49.948;9.208;2022-11-18T12:39:34;9.50;99.90
18091;DHT22;9172;49.948;9.208;2022-11-18T12:41:53;9.60;99.90
18091;DHT22;9172;49.948;9.208;2022-11-18T12:44:41;9.60;99.90
18091;DHT22;9172;49.948;9.208;2022-11-18T12:47:10;9.60;99.90
18091;DHT22;9172;49.948;9.208;2022-11-18T12:50:16;9.50;99.90
18091;DHT22;9172;49.948;9.208;2022-11-18T12:52:52;9.50;99.90
18091;DHT22;9172;49.948;9.208;2022-11-18T12:55:30;9.40;99.90
18091;DHT22;9172;49.948;9.208;2022-11-18T12:58:00;9.40;99.90
18091;DHT22;9172;49.948;9.208;2022-11-18T13:00:33;9.40;99.90
18091;DHT22;9172;49.948;9.208;2022-11-18T13:03:25;9.40;99.90
18091;DHT22;9172;49.948;9.208;2022-11-18T13:06:10;9.40;99.90
18091;DHT22;9172;49.948;9.208;2022-11-18T13:08:37;9.40;99.90
18091;DHT22;9172;49.948;9.208;2022-11-18T13:11:14;9.40;99.90
18091;DHT22;9172;49.948;9.208;2022-11-18T13:14:02;9.40;99.90
18091;DHT22;9172;49.948;9.208;2022-11-18T13:16:56;9.40;99.90
18091;DHT22;9172;49.948;9.208;2022-11-18T13:19:42;9.50;99.90
18091;DHT22;9172;49.948;9.208;2022-11-18T13:22:16;9.50;99.90
18091;DHT22;9172;49.948;9.208;2022-11-18T13:25:03;9.60;99.90
18091;DHT22;9172;49.948;9.208;2022-11-18T13:27:38;9.60;99.90
18091;DHT22;9172;49.948;9.208;2022-11-18T13:30:11;9.60;99.90
18091;DHT22;9172;49.948;9.208;2022-11-18T13:32:44;9.70;99.90
18091;DHT22;9172;49.948;9.208;2022-11-18T13:35:15;9.70;99.90
18091;DHT22;9172;49.948;9.208;2022-11-18T13:37:50;9.70;99.90
18091;DHT22;9172;49.948;9.208;2022-11-18T13:40:25;9.80;99.90
18091;DHT22;9172;49.948;9.208;2022-11-18T13:42:54;9.80;99.90
18091;DHT22;9172;49.948;9.208;2022-11-18T13:45:25;9.80;99.90
18091;DHT22;9172;49.948;9.208;2022-11-18T13:47:58;9.90;99.90
18091;DHT22;9172;49.948;9.208;2022-11-18T13:50:30;9.80;99.90
18091;DHT22;9172;49.948;9.208;2022-11-18T13:53:13;9.90;99.90
18091;DHT22;9172;49.948;9.208;2022-11-18T13:55:46;9.90;99.90
18091;DHT22;9172;49.948;9.208;2022-11-18T13:58:28;9.90;99.90
18091;DHT22;9172;49.948;9.208;2022-11-18T14:00:57;9.90;99.90
18091;DHT22;9172;49.948;9.208;2022-11-18T14:03:28;9.90;99.90
18091;DHT22;9172;49.948;9.208;2022-11-18T14:05:58;9.90;99.90
18091;DHT22;9172;49.948;9.208;2022-11-18T14:08:30;9.90;99.90
18091;DHT22;9172;49.948;9.208;2022-11-18T14:10:59;9.90;99.90
18091;DHT22;9172;49.948;9.208;2022-11-18T14:13:30;9.80;99.90
18091;DHT22;9172;49.948;9.208;2022-11-18T14:16:00;9.80;99.90
18091;DHT22;9172;49.948;9.208;2022-11-18T14:18:32;9.80;99.90
18091;DHT22;9172;49.948;9.208;2022-11-18T14:21:02;9.90;99.90
18091;DHT22;9172;49.948;9.208;2022-11-18T14:23:33;9.90;99.90
18091;DHT22;9172;49.948;9.208;2022-11-18T14:26:03;9.90;99.90
18091;DHT22;9172;49.948;9.208;2022-11-18T14:28:35;9.90;99.90
18091;DHT22;9172;49.948;9.208;2022-11-18T14:31:20;9.90;99.90
18091;DHT22;9172;49.948;9.208;2022-11-18T14:33:38;9.90;99.90
18091;DHT22;9172;49.948;9.208;2022-11-18T14:36:13;9.90;99.90
18091;DHT22;9172;49.948;9.208;2022-11-18T14:38:43;9.90;99.90
18091;DHT22;9172;49.948;9.208;2022-11-18T14:41:14;9.90;99.90
18091;DHT22;9172;49.948;9.208;2022-11-18T14:43:46;9.90;99.90
18091;DHT22;9172;49.948;9.208;2022-11-18T14:46:16;10.00;99.90
18091;DHT22;9172;49.948;9.208;2022-11-18T14:48:46;10.00;99.90
18091;DHT22;9172;49.948;9.208;2022-11-18T14:51:15;9.90;99.90
18091;DHT22;9172;49.948;9.208;2022-11-18T14:53:44;9.90;99.90
18091;DHT22;9172;49.948;9.208;2022-11-18T14:56:15;9.90;99.90
18091;DHT22;9172;49.948;9.208;2022-11-18T14:58:45;9.90;99.90
18091;DHT22;9172;49.948;9.208;2022-11-18T15:01:14;9.90;99.90
18091;DHT22;9172;49.948;9.208;2022-11-18T15:03:44;10.00;99.90
18091;DHT22;9172;49.948;9.208;2022-11-18T15:06:15;10.00;99.90
18091;DHT22;9172;49.948;9.208;2022-11-18T15:08:49;10.00;99.90
18091;DHT22;9172;49.948;9.208;2022-11-18T15:11:15;10.00;99.90
18091;DHT22;9172;49.948;9.208;2022-11-18T15:13:47;10.00;99.90
18091;DHT22;9172;49.948;9.208;2022-11-18T15:16:17;10.00;99.90
18091;DHT22;9172;49.948;9.208;2022-11-18T15:18:49;10.00;99.90
18091;DHT22;9172;49.948;9.208;2022-11-18T15:21:18;10.00;99.90
18091;DHT22;9172;49.948;9.208;2022-11-18T15:23:48;10.00;99.90
18091;DHT22;9172;49.948;9.208;2022-11-18T15:26:20;10.00;99.90
18091;DHT22;9172;49.948;9.208;2022-11-18T15:28:50;9.90;99.90
18091;DHT22;9172;49.948;9.208;2022-11-18T15:31:20;9.90;99.90
18091;DHT22;9172;49.948;9.208;2022-11-18T15:33:49;9.90;99.90
18091;DHT22;9172;49.948;9.208;2022-11-18T15:36:19;9.80;99.90
18091;DHT22;9172;49.948;9.208;2022-11-18T15:38:48;9.90;99.90
18091;DHT22;9172;49.948;9.208;2022-11-18T15:41:19;9.90;99.90
18091;DHT22;9172;49.948;9.208;2022-11-18T15:43:48;9.90;99.90
18091;DHT22;9172;49.948;9.208;2022-11-18T15:46:19;9.90;99.90
18091;DHT22;9172;49.948;9.208;2022-11-18T15:48:50;9.90;99.90
18091;DHT22;9172;49.948;9.208;2022-11-18T15:51:19;9.80;99.90
18091;DHT22;9172;49.948;9.208;2022-11-18T15:53:48;9.80;99.90
18091;DHT22;9172;49.948;9.208;2022-11-18T15:56:25;9.70;99.90
18091;DHT22;9172;49.948;9.208;2022-11-18T15:58:56;9.70;99.90
18091;DHT22;9172;49.948;9.208;2022-11-18T16:01:26;9.70;99.90
18091;DHT22;9172;49.948;9.208;2022-11-18T16:03:56;9.70;99.90
18091;DHT22;9172;49.948;9.208;2022-11-18T16:06:25;9.70;99.90
18091;DHT22;9172;49.948;9.208;2022-11-18T16:08:54;9.70;99.90
18091;DHT22;9172;49.948;9.208;2022-11-18T16:14:10;9.80;99.90
18091;DHT22;9172;49.948;9.208;2022-11-18T16:16:41;9.80;99.90
18091;DHT22;9172;49.948;9.208;2022-11-18T16:19:12;9.80;99.90
18091;DHT22;9172;49.948;9.208;2022-11-18T16:21:44;9.80;99.90
18091;DHT22;9172;49.948;9.208;2022-11-18T16:24:16;9.90;99.90
18091;DHT22;9172;49.948;9.208;2022-11-18T16:26:46;9.90;99.90
18091;DHT22;9172;49.948;9.208;2022-11-18T16:29:17;9.90;99.90
18091;DHT22;9172;49.948;9.208;2022-11-18T16:31:48;9.90;99.90
18091;DHT22;9172;49.948;9.208;2022-11-18T16:34:20;9.90;99.90
18091;DHT22;9172;49.948;9.208;2022-11-18T16:36:51;9.90;99.90
18091;DHT22;9172;49.948;9.208;2022-11-18T16:39:21;9.80;99.90
18091;DHT22;9172;49.948;9.208;2022-11-18T16:41:51;9.80;99.90
18091;DHT22;9172;49.948;9.208;2022-11-18T16:44:20;9.80;99.90
18091;DHT22;9172;49.948;9.208;2022-11-18T16:46:51;9.80;99.90
18091;DHT22;9172;49.948;9.208;2022-11-18T16:49:21;9.80;99.90
18091;DHT22;9172;49.948;9.208;2022-11-18T16:51:51;9.80;99.90
18091;DHT22;9172;49.948;9.208;2022-11-18T16:54:23;9.70;99.90
18091;DHT22;9172;49.948;9.208;2022-11-18T16:56:53;9.70;99.90